Nisshoumaru — JD3093 — position and weather

sailwx.info

Track history (hours):
 
Tides and Currents Weather Stations Pressure Air Temp Water Temp Dewpoint Dewpoint Depression Visibility Wind Speed Wind Dir Waves Ship Positions

Nisshoumaru

Last reported at 2017-Jul-22 07:54 UTC. Time now 2017-Jul-22 08:31 UTC.
Position N 34°45' E 139°08'.

Length 76 m; draft 4 m.

Type: Cargo ship. MMSI: 431001549.

Date/timePositionNaut miles runAvg speedWind from/ knotsBaromVisibWave heightAir tempDewpointWater temp
2017-Jul-22 07:54N 34°45' E 139°08'1412.1
2017-Jul-22 06:43N 34°55' E 139°19'510.8
2017-Jul-22 06:16N 34°58' E 139°25'310.8
2017-Jul-22 06:00N 34°60' E 139°28'611.4
2017-Jul-22 05:30N 35°03' E 139°34'611.8
2017-Jul-22 05:00N 35°06' E 139°40'611.7
2017-Jul-22 04:30N 35°10' E 139°44'510.9
2017-Jul-22 04:00N 35°15' E 139°46'510.8
2017-Jul-22 03:30N 35°20' E 139°43'510.6
2017-Jul-22 03:00N 35°25' E 139°44'510.9
2017-Jul-22 02:30N 35°23' E 139°50'3 0.1
2017-Jul-20 09:45N 35°22' E 139°54'2 6.2
2017-Jul-20 09:30N 35°22' E 139°52'611.6
2017-Jul-20 09:00N 35°28' E 139°50'612.0
2017-Jul-20 08:30N 35°33' E 139°54'611.7
2017-Jul-20 07:59N 35°38' E 139°59'1 0.2
2017-Jul-20 03:16N 35°39' E 139°59'2 0.4
2017-Jul-19 22:04N 35°41' E 139°59'0 2.5
2017-Jul-19 21:57N 35°41' E 139°59'3 7.2
2017-Jul-19 21:29N 35°37' E 139°59'1 0.1
2017-Jul-19 13:04N 35°37' E 139°58'2 9.3
2017-Jul-19 12:54N 35°35' E 139°57'713.1
2017-Jul-19 12:21N 35°29' E 139°52'513.0
2017-Jul-19 11:59N 35°26' E 139°48'613.0
2017-Jul-19 11:31N 35°20' E 139°44'611.7
2017-Jul-19 11:00N 35°15' E 139°47'612.4
2017-Jul-19 10:30N 35°09' E 139°46'611.8
2017-Jul-19 10:00N 35°04' E 139°42'612.6
2017-Jul-19 09:30N 34°60' E 139°36'231 4.7
2017-Jul-17 08:31N 34°36' E 134°56'113.4
2017-Jul-17 08:28N 34°37' E 134°57'511.9
2017-Jul-17 08:00N 34°36' E 135°03'612.3
2017-Jul-17 07:30N 34°34' E 135°10'612.7
2017-Jul-17 07:00N 34°33' E 135°18'510.2
2017-Jul-17 06:30N 34°31' E 135°24'0 0.5
2017-Jul-17 05:45N 34°31' E 135°24'0 0.0
2017-Jul-17 05:14N 34°31' E 135°24'0 0.0
2017-Jul-17 04:50N 34°31' E 135°24'0 0.0
2017-Jul-17 03:51N 34°31' E 135°24'0 0.0
2017-Jul-17 01:39N 34°31' E 135°24'0 0.0
2017-Jul-16 23:57N 34°31' E 135°24'0 0.0
2017-Jul-16 23:15N 34°31' E 135°24'0 0.0
2017-Jul-16 22:51N 34°31' E 135°24'0 0.0
2017-Jul-16 22:27N 34°31' E 135°24'0 0.0
2017-Jul-16 21:57N 34°31' E 135°24'0 0.0
2017-Jul-16 21:27N 34°31' E 135°24'0 0.0
2017-Jul-16 20:57N 34°31' E 135°24'0 0.0
2017-Jul-16 20:21N 34°31' E 135°24'0 0.0
2017-Jul-16 19:57N 34°31' E 135°24'0 0.0
2017-Jul-16 19:21N 34°31' E 135°24'0 0.0
2017-Jul-16 18:57N 34°31' E 135°24'0 0.0
2017-Jul-16 18:27N 34°31' E 135°24'0 0.0
2017-Jul-16 17:51N 34°31' E 135°24'0 0.0
2017-Jul-16 17:27N 34°31' E 135°24'0 0.0
2017-Jul-16 16:56N 34°31' E 135°24'0 0.0
2017-Jul-16 16:27N 34°31' E 135°24'0 0.0
2017-Jul-16 15:56N 34°31' E 135°24'0 0.0
2017-Jul-16 15:26N 34°31' E 135°24'0 0.0
2017-Jul-16 14:57N 34°31' E 135°24'0 0.0
2017-Jul-16 14:21N 34°31' E 135°24'0 0.0
2017-Jul-16 13:51N 34°31' E 135°24'0 0.0
2017-Jul-16 13:15N 34°31' E 135°24'0 0.0
2017-Jul-16 12:57N 34°31' E 135°24'0 0.0
2017-Jul-16 12:27N 34°31' E 135°24'0 0.0
2017-Jul-16 11:57N 34°31' E 135°24'0 0.0
2017-Jul-16 11:27N 34°31' E 135°24'0 0.0
2017-Jul-16 10:57N 34°31' E 135°24'0 0.0
2017-Jul-16 10:26N 34°31' E 135°24'0 0.0
2017-Jul-16 09:27N 34°31' E 135°24'0 0.0
2017-Jul-16 08:57N 34°31' E 135°24'0 0.0
2017-Jul-16 07:39N 34°31' E 135°24'0 0.0
2017-Jul-16 07:15N 34°31' E 135°24'0 0.0
2017-Jul-16 06:45N 34°31' E 135°24'0 0.0
2017-Jul-16 06:27N 34°31' E 135°24'0 0.0
2017-Jul-16 05:03N 34°31' E 135°24'0 0.0
2017-Jul-16 04:56N 34°31' E 135°24'0 0.0
2017-Jul-16 04:09N 34°31' E 135°24'0 0.0
2017-Jul-16 03:15N 34°31' E 135°24'0 0.0
2017-Jul-16 02:45N 34°31' E 135°24'0 0.0
2017-Jul-16 02:21N 34°31' E 135°24'0 0.0
2017-Jul-16 01:45N 34°31' E 135°24'0 0.0
2017-Jul-16 01:26N 34°31' E 135°24'0 0.0
2017-Jul-16 00:38N 34°31' E 135°24'0 0.0
2017-Jul-15 23:51N 34°31' E 135°24'0 0.0
2017-Jul-15 23:27N 34°31' E 135°24'0 0.0
2017-Jul-15 22:57N 34°31' E 135°24'0 0.0
2017-Jul-15 22:03N 34°31' E 135°24'0 0.0
2017-Jul-15 21:51N 34°31' E 135°24'0 0.0
2017-Jul-15 21:27N 34°31' E 135°24'0 0.0
2017-Jul-15 20:51N 34°31' E 135°24'0 0.0
2017-Jul-15 20:27N 34°31' E 135°24'0 0.0
2017-Jul-15 19:51N 34°31' E 135°24'0 0.0
2017-Jul-15 19:27N 34°31' E 135°24'0 0.0
2017-Jul-15 18:57N 34°31' E 135°24'0 0.0
2017-Jul-15 18:26N 34°31' E 135°24'0 0.0
2017-Jul-15 17:51N 34°31' E 135°24'0 0.0
2017-Jul-15 17:27N 34°31' E 135°24'0 0.0
2017-Jul-15 16:45N 34°31' E 135°24'0 0.0
2017-Jul-15 16:27N 34°31' E 135°24'0 0.0
2017-Jul-15 15:57N 34°31' E 135°24'0 0.0
2017-Jul-15 15:21N 34°31' E 135°24'0 0.0
2017-Jul-15 14:57N 34°31' E 135°24'0 0.0
2017-Jul-15 13:57N 34°31' E 135°24'0 0.0
2017-Jul-15 13:15N 34°31' E 135°24'0 0.0
2017-Jul-15 12:45N 34°31' E 135°24'0 0.0
2017-Jul-15 11:33N 34°31' E 135°24'0 0.0
2017-Jul-15 07:37N 34°31' E 135°24'0 0.3
2017-Jul-15 07:30N 34°31' E 135°24'4 7.7
2017-Jul-15 06:58N 34°31' E 135°19'612.7
2017-Jul-15 06:30N 34°28' E 135°13'612.8
2017-Jul-15 06:00N 34°24' E 135°07'1012.2
2017-Jul-15 05:13N 34°16' E 134°59'312.9
2017-Jul-15 05:00N 34°14' E 134°60'713.4
2017-Jul-15 04:30N 34°07' E 135°01'20710.2
2017-Jul-14 08:06N 34°46' E 139°07'111.9
2017-Jul-14 07:59N 34°47' E 139°09'1311.2
2017-Jul-14 06:50N 34°56' E 139°20'410.7
2017-Jul-14 06:29N 34°58' E 139°24'611.8
2017-Jul-14 06:00N 35°01' E 139°30'612.3
2017-Jul-14 05:30N 35°04' E 139°36'612.2
2017-Jul-14 05:00N 35°07' E 139°42'612.2
2017-Jul-14 04:30N 35°12' E 139°46'612.2
2017-Jul-14 04:00N 35°18' E 139°44'611.6
2017-Jul-14 03:30N 35°24' E 139°43'612.1
2017-Jul-14 03:00N 35°28' E 139°48'611.5
2017-Jul-14 02:28N 35°32' E 139°54'711.7
2017-Jul-14 01:51N 35°38' E 139°59'2 0.1
2017-Jul-12 21:49N 35°40' E 139°57'3 8.3
2017-Jul-12 21:28N 35°38' E 139°58'612.2
2017-Jul-12 21:00N 35°35' E 139°52'4 8.0
2017-Jul-12 20:31N 35°38' E 139°48'0 0.0
2017-Jul-12 20:00N 35°38' E 139°48'0 0.0
2017-Jul-12 19:30N 35°38' E 139°48'0 0.0
2017-Jul-12 19:01N 35°38' E 139°48'0 0.0
2017-Jul-12 18:31N 35°38' E 139°48'0 0.0
2017-Jul-12 18:01N 35°38' E 139°48'0 0.0
2017-Jul-12 17:31N 35°38' E 139°48'0 0.0
2017-Jul-12 17:01N 35°38' E 139°48'0 0.0
2017-Jul-12 16:30N 35°38' E 139°48'0 0.0
2017-Jul-12 16:00N 35°38' E 139°48'0 0.0
2017-Jul-12 15:30N 35°38' E 139°48'0 0.0
2017-Jul-12 15:00N 35°38' E 139°48'0 0.0
2017-Jul-12 14:01N 35°38' E 139°48'0 0.0
2017-Jul-12 13:31N 35°38' E 139°48'0 0.0
2017-Jul-12 13:00N 35°38' E 139°48'0 0.0
2017-Jul-12 12:30N 35°38' E 139°48'0 0.0
2017-Jul-12 12:00N 35°38' E 139°48'0 0.0
2017-Jul-12 11:31N 35°38' E 139°48'0 0.0
2017-Jul-12 11:00N 35°38' E 139°48'0 0.0
2017-Jul-12 10:30N 35°38' E 139°48'0 0.0
2017-Jul-12 10:00N 35°38' E 139°48'0 0.0
2017-Jul-12 09:30N 35°38' E 139°48'0 0.0
2017-Jul-12 09:01N 35°38' E 139°48'0 0.0
2017-Jul-12 08:30N 35°38' E 139°48'0 0.0
2017-Jul-12 08:00N 35°38' E 139°48'  
Track history (hours):
 
Tides and Currents Weather Stations Pressure Air Temp Water Temp Dewpoint Dewpoint Depression Visibility Wind Speed Wind Dir Waves Ship Positions

Nisshoumaru

Last reported at 2017-Jul-22 07:54 UTC. Time now 2017-Jul-22 08:31 UTC.
Position N 34°45' E 139°08'.

Length 76 m; draft 4 m.

Type: Cargo ship. MMSI: 431001549.

Date/timePositionNaut miles runAvg speedWind from/ knotsBaromVisibWave heightAir tempDewpointWater temp
2017-Jul-22 07:54N 34°45' E 139°08'1412.1
2017-Jul-22 06:43N 34°55' E 139°19'510.8
2017-Jul-22 06:16N 34°58' E 139°25'310.8
2017-Jul-22 06:00N 34°60' E 139°28'611.4
2017-Jul-22 05:30N 35°03' E 139°34'611.8
2017-Jul-22 05:00N 35°06' E 139°40'611.7
2017-Jul-22 04:30N 35°10' E 139°44'510.9
2017-Jul-22 04:00N 35°15' E 139°46'510.8
2017-Jul-22 03:30N 35°20' E 139°43'510.6
2017-Jul-22 03:00N 35°25' E 139°44'510.9
2017-Jul-22 02:30N 35°23' E 139°50'3 0.1
2017-Jul-20 09:45N 35°22' E 139°54'2 6.2
2017-Jul-20 09:30N 35°22' E 139°52'611.6
2017-Jul-20 09:00N 35°28' E 139°50'612.0
2017-Jul-20 08:30N 35°33' E 139°54'611.7
2017-Jul-20 07:59N 35°38' E 139°59'1 0.2
2017-Jul-20 03:16N 35°39' E 139°59'2 0.4
2017-Jul-19 22:04N 35°41' E 139°59'0 2.5
2017-Jul-19 21:57N 35°41' E 139°59'3 7.2
2017-Jul-19 21:29N 35°37' E 139°59'1 0.1
2017-Jul-19 13:04N 35°37' E 139°58'2 9.3
2017-Jul-19 12:54N 35°35' E 139°57'713.1
2017-Jul-19 12:21N 35°29' E 139°52'513.0
2017-Jul-19 11:59N 35°26' E 139°48'613.0
2017-Jul-19 11:31N 35°20' E 139°44'611.7
2017-Jul-19 11:00N 35°15' E 139°47'612.4
2017-Jul-19 10:30N 35°09' E 139°46'611.8
2017-Jul-19 10:00N 35°04' E 139°42'612.6
2017-Jul-19 09:30N 34°60' E 139°36'231 4.7
2017-Jul-17 08:31N 34°36' E 134°56'113.4
2017-Jul-17 08:28N 34°37' E 134°57'511.9
2017-Jul-17 08:00N 34°36' E 135°03'612.3
2017-Jul-17 07:30N 34°34' E 135°10'612.7
2017-Jul-17 07:00N 34°33' E 135°18'510.2
2017-Jul-17 06:30N 34°31' E 135°24'0 0.5
2017-Jul-17 05:45N 34°31' E 135°24'0 0.0
2017-Jul-17 05:14N 34°31' E 135°24'0 0.0
2017-Jul-17 04:50N 34°31' E 135°24'0 0.0
2017-Jul-17 03:51N 34°31' E 135°24'0 0.0
2017-Jul-17 01:39N 34°31' E 135°24'0 0.0
2017-Jul-16 23:57N 34°31' E 135°24'0 0.0
2017-Jul-16 23:15N 34°31' E 135°24'0 0.0
2017-Jul-16 22:51N 34°31' E 135°24'0 0.0
2017-Jul-16 22:27N 34°31' E 135°24'0 0.0
2017-Jul-16 21:57N 34°31' E 135°24'0 0.0
2017-Jul-16 21:27N 34°31' E 135°24'0 0.0
2017-Jul-16 20:57N 34°31' E 135°24'0 0.0
2017-Jul-16 20:21N 34°31' E 135°24'0 0.0
2017-Jul-16 19:57N 34°31' E 135°24'0 0.0
2017-Jul-16 19:21N 34°31' E 135°24'0 0.0
2017-Jul-16 18:57N 34°31' E 135°24'0 0.0
2017-Jul-16 18:27N 34°31' E 135°24'0 0.0
2017-Jul-16 17:51N 34°31' E 135°24'0 0.0
2017-Jul-16 17:27N 34°31' E 135°24'0 0.0
2017-Jul-16 16:56N 34°31' E 135°24'0 0.0
2017-Jul-16 16:27N 34°31' E 135°24'0 0.0
2017-Jul-16 15:56N 34°31' E 135°24'0 0.0
2017-Jul-16 15:26N 34°31' E 135°24'0 0.0
2017-Jul-16 14:57N 34°31' E 135°24'0 0.0
2017-Jul-16 14:21N 34°31' E 135°24'0 0.0
2017-Jul-16 13:51N 34°31' E 135°24'0 0.0
2017-Jul-16 13:15N 34°31' E 135°24'0 0.0
2017-Jul-16 12:57N 34°31' E 135°24'0 0.0
2017-Jul-16 12:27N 34°31' E 135°24'0 0.0
2017-Jul-16 11:57N 34°31' E 135°24'0 0.0
2017-Jul-16 11:27N 34°31' E 135°24'0 0.0
2017-Jul-16 10:57N 34°31' E 135°24'0 0.0
2017-Jul-16 10:26N 34°31' E 135°24'0 0.0
2017-Jul-16 09:27N 34°31' E 135°24'0 0.0
2017-Jul-16 08:57N 34°31' E 135°24'0 0.0
2017-Jul-16 07:39N 34°31' E 135°24'0 0.0
2017-Jul-16 07:15N 34°31' E 135°24'0 0.0
2017-Jul-16 06:45N 34°31' E 135°24'0 0.0
2017-Jul-16 06:27N 34°31' E 135°24'0 0.0
2017-Jul-16 05:03N 34°31' E 135°24'0 0.0
2017-Jul-16 04:56N 34°31' E 135°24'0 0.0
2017-Jul-16 04:09N 34°31' E 135°24'0 0.0
2017-Jul-16 03:15N 34°31' E 135°24'0 0.0
2017-Jul-16 02:45N 34°31' E 135°24'0 0.0
2017-Jul-16 02:21N 34°31' E 135°24'0 0.0
2017-Jul-16 01:45N 34°31' E 135°24'0 0.0
2017-Jul-16 01:26N 34°31' E 135°24'0 0.0
2017-Jul-16 00:38N 34°31' E 135°24'0 0.0
2017-Jul-15 23:51N 34°31' E 135°24'0 0.0
2017-Jul-15 23:27N 34°31' E 135°24'0 0.0
2017-Jul-15 22:57N 34°31' E 135°24'0 0.0
2017-Jul-15 22:03N 34°31' E 135°24'0 0.0
2017-Jul-15 21:51N 34°31' E 135°24'0 0.0
2017-Jul-15 21:27N 34°31' E 135°24'0 0.0
2017-Jul-15 20:51N 34°31' E 135°24'0 0.0
2017-Jul-15 20:27N 34°31' E 135°24'0 0.0
2017-Jul-15 19:51N 34°31' E 135°24'0 0.0
2017-Jul-15 19:27N 34°31' E 135°24'0 0.0
2017-Jul-15 18:57N 34°31' E 135°24'0 0.0
2017-Jul-15 18:26N 34°31' E 135°24'0 0.0
2017-Jul-15 17:51N 34°31' E 135°24'0 0.0
2017-Jul-15 17:27N 34°31' E 135°24'0 0.0
2017-Jul-15 16:45N 34°31' E 135°24'0 0.0
2017-Jul-15 16:27N 34°31' E 135°24'0 0.0
2017-Jul-15 15:57N 34°31' E 135°24'0 0.0
2017-Jul-15 15:21N 34°31' E 135°24'0 0.0
2017-Jul-15 14:57N 34°31' E 135°24'0 0.0
2017-Jul-15 13:57N 34°31' E 135°24'0 0.0
2017-Jul-15 13:15N 34°31' E 135°24'0 0.0
2017-Jul-15 12:45N 34°31' E 135°24'0 0.0
2017-Jul-15 11:33N 34°31' E 135°24'0 0.0
2017-Jul-15 07:37N 34°31' E 135°24'0 0.3
2017-Jul-15 07:30N 34°31' E 135°24'4 7.7
2017-Jul-15 06:58N 34°31' E 135°19'612.7
2017-Jul-15 06:30N 34°28' E 135°13'612.8
2017-Jul-15 06:00N 34°24' E 135°07'1012.2
2017-Jul-15 05:13N 34°16' E 134°59'312.9
2017-Jul-15 05:00N 34°14' E 134°60'713.4
2017-Jul-15 04:30N 34°07' E 135°01'20710.2
2017-Jul-14 08:06N 34°46' E 139°07'111.9
2017-Jul-14 07:59N 34°47' E 139°09'1311.2
2017-Jul-14 06:50N 34°56' E 139°20'410.7
2017-Jul-14 06:29N 34°58' E 139°24'611.8
2017-Jul-14 06:00N 35°01' E 139°30'612.3
2017-Jul-14 05:30N 35°04' E 139°36'612.2
2017-Jul-14 05:00N 35°07' E 139°42'612.2
2017-Jul-14 04:30N 35°12' E 139°46'612.2
2017-Jul-14 04:00N 35°18' E 139°44'611.6
2017-Jul-14 03:30N 35°24' E 139°43'612.1
2017-Jul-14 03:00N 35°28' E 139°48'611.5
2017-Jul-14 02:28N 35°32' E 139°54'711.7
2017-Jul-14 01:51N 35°38' E 139°59'2 0.1
2017-Jul-12 21:49N 35°40' E 139°57'3 8.3
2017-Jul-12 21:28N 35°38' E 139°58'612.2
2017-Jul-12 21:00N 35°35' E 139°52'4 8.0
2017-Jul-12 20:31N 35°38' E 139°48'0 0.0
2017-Jul-12 20:00N 35°38' E 139°48'0 0.0
2017-Jul-12 19:30N 35°38' E 139°48'0 0.0
2017-Jul-12 19:01N 35°38' E 139°48'0 0.0
2017-Jul-12 18:31N 35°38' E 139°48'0 0.0
2017-Jul-12 18:01N 35°38' E 139°48'0 0.0
2017-Jul-12 17:31N 35°38' E 139°48'0 0.0
2017-Jul-12 17:01N 35°38' E 139°48'0 0.0
2017-Jul-12 16:30N 35°38' E 139°48'0 0.0
2017-Jul-12 16:00N 35°38' E 139°48'0 0.0
2017-Jul-12 15:30N 35°38' E 139°48'0 0.0
2017-Jul-12 15:00N 35°38' E 139°48'0 0.0
2017-Jul-12 14:01N 35°38' E 139°48'0 0.0
2017-Jul-12 13:31N 35°38' E 139°48'0 0.0
2017-Jul-12 13:00N 35°38' E 139°48'0 0.0
2017-Jul-12 12:30N 35°38' E 139°48'0 0.0
2017-Jul-12 12:00N 35°38' E 139°48'0 0.0
2017-Jul-12 11:31N 35°38' E 139°48'0 0.0
2017-Jul-12 11:00N 35°38' E 139°48'0 0.0
2017-Jul-12 10:30N 35°38' E 139°48'0 0.0
2017-Jul-12 10:00N 35°38' E 139°48'0 0.0
2017-Jul-12 09:30N 35°38' E 139°48'0 0.0
2017-Jul-12 09:01N 35°38' E 139°48'0 0.0
2017-Jul-12 08:30N 35°38' E 139°48'0 0.0
2017-Jul-12 08:00N 35°38' E 139°48'  

Dump ship's entire track history